createdAt,value
2019-06-07T00:00:37.559Z,99.90
2019-06-07T00:02:58.154Z,99.90
2019-06-07T00:05:26.379Z,99.90
2019-06-07T00:07:54.652Z,99.90
2019-06-07T00:10:35.904Z,99.90
2019-06-07T00:12:52.848Z,99.90
2019-06-07T00:15:28.002Z,99.90
2019-06-07T00:17:51.014Z,99.90
2019-06-07T00:20:23.417Z,99.90
2019-06-07T00:22:49.519Z,99.90
2019-06-07T00:25:23.792Z,99.90
2019-06-07T00:27:47.708Z,99.90
2019-06-07T00:30:37.583Z,99.90
2019-06-07T00:32:45.905Z,99.90
2019-06-07T00:35:15.485Z,99.90
2019-06-07T00:37:44.090Z,99.90
2019-06-07T00:40:18.548Z,99.90
2019-06-07T00:42:42.252Z,99.90
2019-06-07T00:45:11.231Z,99.90
2019-06-07T00:47:40.268Z,99.90
2019-06-07T00:50:08.496Z,99.90
2019-06-07T00:55:06.841Z,99.90
2019-06-07T00:57:35.053Z,99.90
2019-06-07T01:00:04.057Z,99.90
2019-06-07T01:02:32.282Z,99.90
2019-06-07T01:05:00.558Z,99.90
2019-06-07T01:07:28.816Z,99.90
2019-06-07T01:09:57.173Z,99.90
2019-06-07T01:12:26.985Z,99.90
2019-06-07T01:14:55.472Z,99.90
2019-06-07T01:17:39.203Z,99.90
2019-06-07T01:19:56.300Z,99.90
2019-06-07T01:22:28.985Z,99.90
2019-06-07T01:24:54.457Z,99.90
2019-06-07T01:27:24.184Z,99.90
2019-06-07T01:29:52.624Z,99.90
2019-06-07T01:32:21.665Z,99.90
2019-06-07T01:34:50.768Z,99.90
2019-06-07T01:37:20.106Z,99.90
2019-06-07T01:39:48.924Z,99.90
2019-06-07T01:42:18.631Z,99.90
2019-06-07T01:44:47.087Z,99.90
2019-06-07T01:47:15.296Z,99.90
2019-06-07T01:49:43.504Z,99.90
2019-06-07T01:52:11.738Z,99.90
2019-06-07T01:54:56.072Z,99.90
2019-06-07T01:57:30.549Z,99.90
2019-06-07T01:59:39.892Z,99.90
2019-06-07T02:02:08.155Z,99.90
2019-06-07T02:04:36.381Z,99.90
2019-06-07T02:07:04.645Z,99.90
2019-06-07T02:09:32.916Z,99.90
2019-06-07T02:12:01.135Z,99.90
2019-06-07T02:14:32.429Z,99.90
2019-06-07T02:16:59.428Z,99.90
2019-06-07T02:19:31.715Z,99.90
2019-06-07T02:21:57.678Z,99.90
2019-06-07T02:24:28.944Z,99.90
2019-06-07T02:26:55.882Z,99.90
2019-06-07T02:29:25.468Z,99.90
2019-06-07T02:31:54.075Z,99.90
2019-06-07T02:34:24.919Z,99.90
2019-06-07T02:36:52.246Z,99.90
2019-06-07T02:39:23.327Z,99.90
2019-06-07T02:41:50.404Z,99.90
2019-06-07T02:44:18.693Z,99.90
2019-06-07T02:46:49.732Z,99.90
2019-06-07T02:49:17.180Z,99.90
2019-06-07T02:51:45.441Z,99.90
2019-06-07T02:54:13.661Z,99.90
2019-06-07T02:56:56.855Z,99.90
2019-06-07T02:59:11.854Z,99.90
2019-06-07T03:01:42.536Z,99.90
2019-06-07T03:04:10.948Z,99.90
2019-06-07T03:06:43.697Z,99.90
2019-06-07T03:09:10.028Z,99.90
2019-06-07T03:11:40.166Z,99.90
2019-06-07T03:14:08.858Z,99.90
2019-06-07T03:16:39.138Z,99.90
2019-06-07T03:19:12.160Z,99.90
2019-06-07T03:21:41.916Z,99.90
2019-06-07T03:24:10.249Z,99.90
2019-06-07T03:27:30.396Z,99.90
2019-06-07T03:29:08.411Z,99.90
2019-06-07T03:31:45.383Z,99.90
2019-06-07T03:34:06.598Z,99.90
2019-06-07T03:36:38.845Z,99.90
2019-06-07T03:39:07.101Z,99.90
2019-06-07T03:41:43.849Z,99.90
2019-06-07T03:44:05.297Z,99.90
2019-06-07T03:46:37.538Z,99.90
2019-06-07T03:49:03.504Z,99.90
2019-06-07T03:51:32.929Z,99.90
2019-06-07T03:54:01.656Z,99.90
2019-06-07T03:56:31.781Z,99.90
2019-06-07T03:58:59.803Z,99.90
2019-06-07T04:01:29.016Z,99.90
2019-06-07T04:03:57.988Z,99.90
2019-06-07T04:06:26.211Z,99.90
2019-06-07T04:08:54.425Z,99.90
2019-06-07T04:11:22.657Z,99.90
2019-06-07T04:13:50.863Z,99.90
2019-06-07T04:16:19.077Z,99.90
2019-06-07T04:18:47.297Z,99.90
2019-06-07T04:21:15.530Z,99.90
2019-06-07T04:23:45.683Z,99.90
2019-06-07T04:26:13.697Z,99.90
2019-06-07T04:29:30.224Z,99.90
2019-06-07T04:31:11.861Z,99.90
2019-06-07T04:33:43.522Z,99.90
2019-06-07T04:36:10.343Z,99.90
2019-06-07T04:38:40.622Z,99.90
2019-06-07T04:41:08.524Z,99.90
2019-06-07T04:43:38.722Z,99.90
2019-06-07T04:46:06.991Z,99.90
2019-06-07T04:48:38.132Z,99.90
2019-06-07T04:51:05.270Z,99.90
2019-06-07T04:53:36.296Z,99.90
2019-06-07T04:56:03.496Z,99.90
2019-06-07T04:58:31.709Z,99.90
2019-06-07T05:01:03.501Z,99.90
2019-06-07T05:03:34.534Z,99.90
2019-06-07T05:05:59.829Z,99.90
2019-06-07T05:08:30.366Z,99.90
2019-06-07T05:10:57.976Z,99.90
2019-06-07T05:13:26.188Z,99.90
2019-06-07T05:15:54.396Z,99.90
2019-06-07T05:18:22.620Z,99.90
2019-06-07T05:20:50.908Z,99.90
2019-06-07T05:24:00.255Z,99.90
2019-06-07T05:25:49.133Z,99.90
2019-06-07T05:28:17.351Z,99.90
2019-06-07T05:31:05.080Z,99.90
2019-06-07T05:33:15.507Z,99.90
2019-06-07T05:35:43.824Z,99.90
2019-06-07T05:38:12.065Z,99.90
2019-06-07T05:40:43.910Z,99.90
2019-06-07T05:43:25.066Z,99.90
2019-06-07T05:45:53.284Z,99.90
2019-06-07T05:48:21.841Z,99.90
2019-06-07T05:50:56.967Z,99.90
2019-06-07T05:53:19.987Z,99.90
2019-06-07T05:55:48.248Z,99.90
2019-06-07T05:58:16.502Z,99.90
2019-06-07T06:00:47.544Z,99.90
2019-06-07T06:03:14.699Z,99.90
2019-06-07T06:05:50.284Z,99.90
2019-06-07T06:08:12.831Z,99.90
2019-06-07T06:10:45.223Z,99.90
2019-06-07T06:13:10.989Z,99.90
2019-06-07T06:15:48.649Z,99.90
2019-06-07T06:18:09.152Z,99.90
2019-06-07T06:21:00.957Z,99.90
2019-06-07T06:23:07.286Z,99.90
2019-06-07T06:25:37.567Z,99.90
2019-06-07T06:28:11.587Z,99.90
2019-06-07T06:30:35.924Z,99.90
2019-06-07T06:33:04.177Z,99.90
2019-06-07T06:35:32.411Z,99.90
2019-06-07T06:38:00.612Z,99.90
2019-06-07T06:40:28.824Z,99.90
2019-06-07T06:42:57.035Z,99.90
2019-06-07T06:45:25.267Z,99.90
2019-06-07T06:47:53.465Z,99.90
2019-06-07T06:50:21.682Z,99.90
2019-06-07T06:52:54.223Z,99.90
2019-06-07T06:55:19.876Z,99.90
2019-06-07T06:57:49.099Z,99.90
2019-06-07T07:00:18.011Z,99.90
2019-06-07T07:03:32.604Z,99.90
2019-06-07T07:05:16.145Z,99.90
2019-06-07T07:07:45.401Z,99.90
2019-06-07T07:10:15.905Z,99.90
2019-06-07T07:12:45.486Z,99.90
2019-06-07T07:15:17.005Z,98.80
2019-06-07T07:17:53.867Z,98.40
2019-06-07T07:20:15.125Z,97.70
2019-06-07T07:22:46.408Z,97.40
2019-06-07T07:25:13.528Z,96.80
2019-06-07T07:27:42.239Z,97.00
2019-06-07T07:30:36.115Z,94.40
2019-06-07T07:32:40.830Z,94.50
2019-06-07T07:35:09.033Z,94.90
2019-06-07T07:37:37.280Z,96.30
2019-06-07T07:40:55.483Z,94.60
2019-06-07T07:42:38.391Z,93.50
2019-06-07T07:45:06.624Z,92.60
2019-06-07T07:47:34.835Z,92.60
2019-06-07T07:50:04.420Z,91.70
2019-06-07T07:52:32.611Z,92.70
2019-06-07T07:55:00.829Z,92.40
2019-06-07T07:57:29.066Z,91.10
2019-06-07T08:00:13.674Z,86.90
2019-06-07T08:02:27.274Z,86.90
2019-06-07T08:07:25.496Z,88.40
2019-06-07T08:09:57.749Z,85.40
2019-06-07T08:12:23.790Z,86.10
2019-06-07T08:14:57.491Z,87.50
2019-06-07T08:17:22.011Z,88.40
2019-06-07T08:19:52.273Z,86.10
2019-06-07T08:22:20.359Z,86.40
2019-06-07T08:24:50.495Z,88.50
2019-06-07T08:27:26.396Z,87.50
2019-06-07T08:30:14.344Z,88.30
2019-06-07T08:32:18.587Z,90.00
2019-06-07T08:34:49.083Z,87.70
2019-06-07T08:37:16.826Z,87.20
2019-06-07T08:39:45.036Z,88.30
2019-06-07T08:42:21.210Z,83.00
2019-06-07T08:44:43.288Z,83.70
2019-06-07T08:47:19.926Z,86.30
2019-06-07T08:49:41.521Z,86.60
2019-06-07T08:52:12.237Z,87.60
2019-06-07T08:54:40.166Z,89.30
2019-06-07T08:57:20.568Z,88.40
2019-06-07T08:59:38.433Z,85.10
2019-06-07T09:02:22.555Z,78.90
2019-06-07T09:07:25.233Z,83.40
2019-06-07T09:09:59.770Z,85.60
2019-06-07T09:12:23.384Z,83.50
2019-06-07T09:15:09.355Z,81.20
2019-06-07T09:17:22.339Z,78.30
2019-06-07T09:19:50.545Z,75.30
2019-06-07T09:22:18.783Z,73.90
2019-06-07T09:24:46.987Z,72.70
2019-06-07T09:27:15.289Z,72.10
2019-06-07T09:29:43.827Z,72.40
2019-06-07T09:32:18.151Z,71.40
2019-06-07T09:34:42.202Z,67.10
2019-06-07T09:38:03.134Z,65.70
2019-06-07T09:39:40.580Z,66.00
2019-06-07T09:42:12.281Z,65.00
2019-06-07T09:44:38.757Z,65.50
2019-06-07T09:47:22.544Z,67.10
2019-06-07T09:49:36.953Z,68.30
2019-06-07T09:52:09.872Z,68.10
2019-06-07T09:57:10.985Z,70.80
2019-06-07T09:59:35.013Z,72.20
2019-06-07T10:02:05.565Z,68.80
2019-06-07T10:04:33.266Z,64.60
2019-06-07T10:07:09.036Z,61.80
2019-06-07T10:12:04.561Z,58.30
2019-06-07T10:14:32.897Z,59.30
2019-06-07T10:17:01.128Z,57.50
2019-06-07T10:19:29.321Z,56.90
2019-06-07T10:21:57.557Z,56.90
2019-06-07T10:24:25.741Z,54.50
2019-06-07T10:26:54.009Z,55.60
2019-06-07T10:29:22.408Z,55.10
2019-06-07T10:31:50.636Z,53.30
2019-06-07T10:34:18.884Z,53.90
2019-06-07T10:36:47.111Z,52.60
2019-06-07T10:39:15.373Z,51.80
2019-06-07T10:41:43.708Z,50.70
2019-06-07T10:44:11.937Z,51.50
2019-06-07T10:46:40.356Z,50.00
2019-06-07T10:49:09.995Z,49.50
2019-06-07T10:51:38.389Z,47.80
2019-06-07T10:54:19.936Z,49.20
2019-06-07T10:56:35.919Z,50.40
2019-06-07T10:59:05.201Z,50.90
2019-06-07T11:01:33.533Z,49.40
2019-06-07T11:04:01.764Z,49.20
2019-06-07T11:06:29.975Z,48.70
2019-06-07T11:08:58.198Z,47.70
2019-06-07T11:11:26.406Z,47.40
2019-06-07T11:13:54.607Z,47.30
2019-06-07T11:16:22.835Z,48.40
2019-06-07T11:18:51.044Z,47.40
2019-06-07T11:21:19.245Z,46.70
2019-06-07T11:23:47.456Z,43.60
2019-06-07T11:26:15.655Z,45.50
2019-06-07T11:28:43.881Z,44.40
2019-06-07T11:31:13.334Z,46.60
2019-06-07T11:33:42.000Z,46.80
2019-06-07T11:36:10.641Z,47.90
2019-06-07T11:38:38.903Z,47.90
2019-06-07T11:41:07.412Z,49.70
2019-06-07T11:43:35.725Z,48.20
2019-06-07T11:46:03.992Z,50.10
2019-06-07T11:48:32.220Z,50.40
2019-06-07T11:51:00.425Z,51.50
2019-06-07T11:53:28.654Z,52.50
2019-06-07T11:55:56.893Z,53.40
2019-06-07T11:58:25.079Z,53.90
2019-06-07T12:00:53.444Z,54.60
2019-06-07T12:03:21.655Z,54.70
2019-06-07T12:05:49.854Z,55.90
2019-06-07T12:08:18.254Z,55.50
2019-06-07T12:10:46.597Z,55.70
2019-06-07T12:13:15.565Z,55.80
2019-06-07T12:15:48.778Z,54.60
2019-06-07T12:18:15.445Z,55.00
2019-06-07T12:20:43.656Z,53.90
2019-06-07T12:23:12.044Z,53.70
2019-06-07T12:25:40.532Z,53.90
2019-06-07T12:28:08.736Z,53.40
2019-06-07T12:30:36.937Z,51.60
2019-06-07T12:33:05.160Z,53.40
2019-06-07T12:35:33.439Z,52.20
2019-06-07T12:38:01.681Z,52.40
2019-06-07T12:40:32.233Z,53.60
2019-06-07T12:42:59.201Z,53.00
2019-06-07T12:45:45.657Z,52.00
2019-06-07T12:47:58.961Z,51.60
2019-06-07T12:50:41.883Z,52.70
2019-06-07T12:52:57.105Z,51.80
2019-06-07T12:55:25.311Z,51.90
2019-06-07T12:57:53.529Z,53.80
2019-06-07T13:00:22.394Z,54.80
2019-06-07T13:02:50.796Z,55.60
2019-06-07T13:05:19.930Z,55.90
2019-06-07T13:07:48.315Z,56.70
2019-06-07T13:10:17.909Z,56.00
2019-06-07T13:12:46.840Z,57.40
2019-06-07T13:15:16.678Z,57.00
2019-06-07T13:17:44.989Z,56.80
2019-06-07T13:20:13.204Z,55.80
2019-06-07T13:22:41.413Z,54.60
2019-06-07T13:25:09.624Z,55.80
2019-06-07T13:27:37.829Z,55.50
2019-06-07T13:30:10.188Z,57.00
2019-06-07T13:32:36.527Z,57.80
2019-06-07T13:35:08.479Z,55.60
2019-06-07T13:37:36.694Z,54.10
2019-06-07T13:40:08.212Z,55.40
2019-06-07T13:42:36.434Z,55.40
2019-06-07T13:45:05.675Z,53.80
2019-06-07T13:47:33.881Z,55.10
2019-06-07T13:50:02.171Z,56.10
2019-06-07T13:52:30.377Z,55.00
2019-06-07T13:55:02.001Z,55.00
2019-06-07T13:57:28.151Z,54.20
2019-06-07T13:59:56.508Z,54.60
2019-06-07T14:02:26.100Z,53.50
2019-06-07T14:04:53.996Z,54.00
2019-06-07T14:07:23.659Z,53.20
2019-06-07T14:09:52.191Z,52.00
2019-06-07T14:12:22.263Z,51.80
2019-06-07T14:14:50.403Z,50.70
2019-06-07T14:17:18.686Z,50.90
2019-06-07T14:19:46.939Z,50.40
2019-06-07T14:22:15.144Z,51.00
2019-06-07T14:24:43.390Z,50.90
2019-06-07T14:27:11.638Z,51.40
2019-06-07T14:29:39.898Z,51.10
2019-06-07T14:32:08.139Z,51.10
2019-06-07T14:34:36.413Z,50.60
2019-06-07T14:37:05.755Z,50.70
2019-06-07T14:39:34.001Z,50.50
2019-06-07T14:42:09.394Z,50.10
2019-06-07T14:47:32.092Z,51.30
2019-06-07T14:52:57.667Z,52.20
2019-06-07T14:55:26.965Z,52.20
2019-06-07T14:57:55.305Z,50.00
2019-06-07T15:00:41.972Z,51.50
2019-06-07T15:03:10.323Z,49.60
2019-06-07T15:05:40.449Z,49.20
2019-06-07T15:08:08.569Z,48.60
2019-06-07T15:10:36.849Z,49.20
2019-06-07T15:13:05.084Z,49.60
2019-06-07T15:15:34.556Z,48.90
2019-06-07T15:18:02.897Z,49.60
2019-06-07T15:20:32.181Z,50.20
2019-06-07T15:23:00.540Z,49.80
2019-06-07T15:25:29.148Z,49.80
2019-06-07T15:27:57.534Z,51.20
2019-06-07T15:30:25.765Z,50.40
2019-06-07T15:32:54.037Z,48.80
2019-06-07T15:35:22.252Z,47.50
2019-06-07T15:37:50.455Z,48.10
2019-06-07T15:40:18.680Z,48.50
2019-06-07T15:42:52.701Z,48.90
2019-06-07T15:45:16.816Z,47.80
2019-06-07T15:47:45.037Z,50.70
2019-06-07T15:50:15.056Z,52.70
2019-06-07T15:52:43.498Z,54.10
2019-06-07T15:55:11.794Z,55.00
2019-06-07T15:57:42.259Z,55.80
2019-06-07T16:00:12.950Z,55.90
2019-06-07T16:02:46.524Z,54.50
2019-06-07T16:05:15.250Z,54.50
2019-06-07T16:07:54.751Z,55.00
2019-06-07T16:10:24.897Z,56.80
2019-06-07T16:13:00.383Z,56.90
2019-06-07T16:15:23.652Z,58.60
2019-06-07T16:17:51.963Z,60.20
2019-06-07T16:20:20.863Z,61.10
2019-06-07T16:22:49.287Z,62.40
2019-06-07T16:25:17.677Z,62.40
2019-06-07T16:27:47.036Z,63.60
2019-06-07T16:30:15.440Z,65.20
2019-06-07T16:32:46.829Z,64.20
2019-06-07T16:35:15.219Z,65.00
2019-06-07T16:38:03.299Z,65.70
2019-06-07T16:43:36.547Z,66.00
2019-06-07T16:49:02.086Z,68.50
2019-06-07T16:51:30.954Z,68.40
2019-06-07T16:53:59.168Z,67.60
2019-06-07T16:56:27.768Z,66.80
2019-06-07T16:59:25.274Z,66.80
2019-06-07T17:01:49.712Z,65.70
2019-06-07T17:04:18.324Z,65.50
2019-06-07T17:06:52.651Z,64.60
2019-06-07T17:09:20.143Z,65.90
2019-06-07T17:11:48.634Z,66.30
2019-06-07T17:14:16.962Z,66.80
2019-06-07T17:16:46.121Z,66.70
2019-06-07T17:19:15.108Z,68.00
2019-06-07T17:21:52.333Z,67.50
2019-06-07T17:24:26.778Z,67.00
2019-06-07T17:26:58.423Z,67.70
2019-06-07T17:29:26.656Z,69.30
2019-06-07T17:31:54.884Z,70.00
2019-06-07T17:34:23.117Z,70.20
2019-06-07T17:36:51.332Z,71.00
2019-06-07T17:39:19.708Z,72.50
2019-06-07T17:41:59.789Z,73.00
2019-06-07T17:44:18.200Z,76.70
2019-06-07T17:46:47.604Z,90.80
2019-06-07T17:49:15.851Z,95.90
2019-06-07T17:51:44.227Z,96.30
2019-06-07T17:54:12.461Z,99.90
2019-06-07T17:56:42.262Z,99.90
2019-06-07T17:59:10.780Z,99.90
2019-06-07T18:01:41.821Z,99.90
2019-06-07T18:04:08.955Z,99.90
2019-06-07T18:06:37.649Z,99.90
2019-06-07T18:09:07.714Z,99.90
2019-06-07T18:11:35.933Z,99.90
2019-06-07T18:14:10.660Z,99.90
2019-06-07T18:16:35.040Z,99.90
2019-06-07T18:19:03.252Z,99.90
2019-06-07T18:21:31.564Z,99.90
2019-06-07T18:23:59.815Z,99.90
2019-06-07T18:26:28.088Z,99.90
2019-06-07T18:28:56.303Z,99.90
2019-06-07T18:31:24.531Z,99.90
2019-06-07T18:33:52.979Z,99.90
2019-06-07T18:36:21.353Z,99.90
2019-06-07T18:38:49.589Z,99.90
2019-06-07T18:41:17.864Z,99.90
2019-06-07T18:43:47.057Z,99.90
2019-06-07T18:46:15.379Z,99.90
2019-06-07T18:48:43.587Z,99.90
2019-06-07T18:51:11.799Z,99.90
2019-06-07T18:53:40.096Z,99.90
2019-06-07T18:56:08.394Z,99.90
2019-06-07T18:58:36.608Z,99.90
2019-06-07T19:01:04.823Z,99.90
2019-06-07T19:03:33.038Z,99.90
2019-06-07T19:06:01.255Z,99.90
2019-06-07T19:08:29.750Z,99.90
2019-06-07T19:10:58.968Z,99.90
2019-06-07T19:13:27.381Z,99.90
2019-06-07T19:15:55.596Z,99.90
2019-06-07T19:18:23.829Z,99.90
2019-06-07T19:20:52.432Z,99.90
2019-06-07T19:23:20.728Z,99.90
2019-06-07T19:25:50.084Z,99.90
2019-06-07T19:28:18.408Z,99.90
2019-06-07T19:30:46.625Z,99.90
2019-06-07T19:33:15.013Z,99.90
2019-06-07T19:35:43.232Z,99.90
2019-06-07T19:38:11.481Z,99.90
2019-06-07T19:40:39.688Z,99.90
2019-06-07T19:43:07.904Z,99.90
2019-06-07T19:45:36.111Z,99.90
2019-06-07T19:48:04.859Z,99.90
2019-06-07T19:50:33.120Z,99.90
2019-06-07T19:53:01.387Z,99.90
2019-06-07T19:55:29.638Z,99.90
2019-06-07T19:57:57.827Z,99.90
2019-06-07T20:00:26.051Z,99.90
2019-06-07T20:02:55.744Z,99.90
2019-06-07T20:05:24.135Z,99.90
2019-06-07T20:07:52.423Z,99.90
2019-06-07T20:10:20.718Z,99.90
2019-06-07T20:12:48.973Z,99.90
2019-06-07T20:15:29.214Z,99.90
2019-06-07T20:17:47.231Z,99.90
2019-06-07T20:20:15.560Z,99.90
2019-06-07T20:22:43.804Z,99.90
2019-06-07T20:25:12.106Z,99.90
2019-06-07T20:27:40.338Z,99.90
2019-06-07T20:30:09.012Z,99.90
2019-06-07T20:32:37.521Z,99.90
2019-06-07T20:35:08.052Z,99.90
2019-06-07T20:37:36.484Z,99.90
2019-06-07T20:40:22.770Z,99.90
2019-06-07T20:42:40.004Z,99.90
2019-06-07T20:45:08.414Z,99.90
2019-06-07T20:47:36.668Z,99.90
2019-06-07T20:50:08.652Z,99.90
2019-06-07T20:52:37.627Z,99.90
2019-06-07T20:55:07.069Z,99.90
2019-06-07T20:57:35.522Z,99.90
2019-06-07T21:00:14.300Z,99.90
2019-06-07T21:02:39.004Z,99.90
2019-06-07T21:05:07.676Z,99.90
2019-06-07T21:07:36.109Z,99.90
2019-06-07T21:10:07.664Z,99.90
2019-06-07T21:12:36.468Z,99.90
2019-06-07T21:15:11.897Z,99.90
2019-06-07T21:17:37.806Z,99.90
2019-06-07T21:20:09.916Z,99.90
2019-06-07T21:22:37.312Z,99.90
2019-06-07T21:25:09.577Z,99.90
2019-06-07T21:27:38.163Z,99.90
2019-06-07T21:30:09.529Z,99.90
2019-06-07T21:32:38.042Z,99.90
2019-06-07T21:35:08.026Z,99.90
2019-06-07T21:37:36.501Z,99.90
2019-06-07T21:40:08.216Z,99.90
2019-06-07T21:42:36.942Z,99.90
2019-06-07T21:45:07.763Z,99.90
2019-06-07T21:47:36.027Z,99.90
2019-06-07T21:50:06.654Z,99.90
2019-06-07T21:52:37.301Z,99.90
2019-06-07T21:55:06.979Z,99.90
2019-06-07T21:57:35.842Z,99.90
2019-06-07T22:00:14.415Z,99.90
2019-06-07T22:02:42.751Z,99.90
2019-06-07T22:05:11.719Z,99.90
2019-06-07T22:07:40.154Z,99.90
2019-06-07T22:10:08.360Z,99.90
2019-06-07T22:12:36.748Z,99.90
2019-06-07T22:15:23.303Z,99.90
2019-06-07T22:17:37.136Z,99.90
2019-06-07T22:20:06.449Z,99.90
2019-06-07T22:22:34.707Z,99.90
2019-06-07T22:25:04.790Z,99.90
2019-06-07T22:27:33.251Z,99.90
2019-06-07T22:30:01.453Z,99.90
2019-06-07T22:32:29.653Z,99.90
2019-06-07T22:34:57.865Z,99.90
2019-06-07T22:37:26.070Z,99.90
2019-06-07T22:39:54.285Z,99.90
2019-06-07T22:42:22.500Z,99.90
2019-06-07T22:44:50.718Z,99.90
2019-06-07T22:47:18.924Z,99.90
2019-06-07T22:49:47.125Z,99.90
2019-06-07T22:52:16.856Z,99.90
2019-06-07T22:54:45.296Z,99.90
2019-06-07T22:57:16.581Z,99.90
2019-06-07T22:59:45.047Z,99.90
2019-06-07T23:02:14.597Z,99.90
2019-06-07T23:04:42.945Z,99.90
2019-06-07T23:07:11.161Z,99.90
2019-06-07T23:09:39.368Z,99.90
2019-06-07T23:12:07.565Z,99.90
2019-06-07T23:14:35.774Z,99.90
2019-06-07T23:17:03.982Z,99.90
2019-06-07T23:19:32.183Z,99.90
2019-06-07T23:22:00.401Z,99.90
2019-06-07T23:24:28.601Z,99.90
2019-06-07T23:26:56.808Z,99.90
2019-06-07T23:29:25.017Z,99.90
2019-06-07T23:31:53.258Z,99.90
2019-06-07T23:34:21.539Z,99.90
2019-06-07T23:36:49.740Z,99.90
2019-06-07T23:39:20.428Z,99.90
2019-06-07T23:41:47.984Z,99.90
2019-06-07T23:44:17.191Z,99.90
2019-06-07T23:46:45.491Z,99.90
2019-06-07T23:49:14.014Z,99.90
2019-06-07T23:51:42.412Z,99.90
2019-06-07T23:54:11.530Z,99.90
2019-06-07T23:56:39.918Z,99.90
2019-06-07T23:59:08.140Z,99.90
